createdAt,value
2018-12-20T00:02:16.338Z,58.50
2018-12-20T00:07:09.511Z,68.00
2018-12-20T00:12:03.548Z,57.17
2018-12-20T00:17:02.252Z,62.77
2018-12-20T00:21:56.251Z,58.67
2018-12-20T00:26:50.974Z,69.50
2018-12-20T00:31:44.864Z,58.90
2018-12-20T00:36:38.750Z,62.27
2018-12-20T00:41:32.460Z,57.43
2018-12-20T00:46:25.505Z,60.10
2018-12-20T00:51:18.750Z,61.50
2018-12-20T00:56:12.174Z,56.23
2018-12-20T01:01:06.135Z,55.27
2018-12-20T01:06:00.038Z,57.20
2018-12-20T01:10:53.002Z,56.37
2018-12-20T01:15:46.284Z,62.57
2018-12-20T01:20:40.341Z,56.33
2018-12-20T01:25:34.676Z,53.77
2018-12-20T01:30:27.913Z,54.43
2018-12-20T01:35:22.548Z,59.50
2018-12-20T01:40:15.628Z,56.97
2018-12-20T01:45:08.670Z,53.20
2018-12-20T01:50:01.785Z,58.83
2018-12-20T01:54:55.018Z,54.03
2018-12-20T01:59:48.113Z,60.17
2018-12-20T02:04:41.323Z,54.23
2018-12-20T02:09:34.801Z,53.50
2018-12-20T02:14:35.714Z,57.63
2018-12-20T02:19:29.517Z,61.17
2018-12-20T02:24:22.594Z,55.53
2018-12-20T02:29:16.977Z,57.53
2018-12-20T02:34:10.480Z,61.03
2018-12-20T02:39:06.557Z,60.00
2018-12-20T02:43:59.631Z,54.60
2018-12-20T02:48:52.926Z,61.43
2018-12-20T02:53:46.225Z,60.10
2018-12-20T02:58:39.251Z,57.77
2018-12-20T03:03:32.263Z,62.20
2018-12-20T03:08:25.531Z,61.00
2018-12-20T03:13:18.563Z,56.80
2018-12-20T03:18:11.580Z,62.57
2018-12-20T03:23:06.036Z,58.00
2018-12-20T03:27:58.951Z,61.80
2018-12-20T03:32:52.121Z,57.23
2018-12-20T03:37:45.205Z,59.87
2018-12-20T03:42:38.380Z,60.57
2018-12-20T03:47:31.349Z,54.67
2018-12-20T03:52:24.462Z,55.20
2018-12-20T03:57:17.880Z,58.93
2018-12-20T04:02:10.942Z,59.67
2018-12-20T04:07:04.344Z,61.93
2018-12-20T04:11:58.317Z,56.23
2018-12-20T04:16:52.095Z,62.73
2018-12-20T04:21:45.605Z,59.80
2018-12-20T04:26:38.685Z,58.20
2018-12-20T04:31:31.903Z,57.03
2018-12-20T04:36:25.887Z,56.20
2018-12-20T04:41:19.202Z,54.53
2018-12-20T04:46:12.381Z,51.67
2018-12-20T04:51:05.847Z,57.30
2018-12-20T04:55:58.787Z,60.37
2018-12-20T05:00:52.096Z,50.03
2018-12-20T05:05:45.350Z,50.60
2018-12-20T05:10:38.853Z,51.73
2018-12-20T05:15:31.923Z,58.47
2018-12-20T05:20:26.184Z,50.93
2018-12-20T05:25:19.506Z,47.93
2018-12-20T05:30:12.966Z,42.57
2018-12-20T05:35:07.287Z,45.93
2018-12-20T05:40:00.833Z,44.93
2018-12-20T05:44:54.459Z,43.63
2018-12-20T05:49:48.079Z,44.07
2018-12-20T05:54:41.261Z,42.97
2018-12-20T05:59:34.293Z,46.27
2018-12-20T06:04:29.039Z,42.63
2018-12-20T06:09:22.426Z,47.53
2018-12-20T06:14:15.766Z,45.70
2018-12-20T06:19:08.941Z,43.63
2018-12-20T06:24:09.857Z,50.00
2018-12-20T06:29:10.202Z,47.47
2018-12-20T06:34:03.990Z,45.77
2018-12-20T06:38:58.082Z,45.23
2018-12-20T06:43:52.793Z,46.73
2018-12-20T06:48:45.761Z,44.33
2018-12-20T06:53:39.574Z,45.60
2018-12-20T06:58:34.315Z,46.23
2018-12-20T07:03:27.837Z,43.03
2018-12-20T07:08:21.828Z,46.83
2018-12-20T07:13:16.086Z,44.13
2018-12-20T07:18:09.464Z,43.63
2018-12-20T07:23:05.367Z,49.00
2018-12-20T07:28:00.076Z,44.87
2018-12-20T07:32:52.926Z,45.20
2018-12-20T07:37:47.560Z,38.57
2018-12-20T07:42:41.390Z,40.53
2018-12-20T07:47:36.507Z,40.50
2018-12-20T07:52:30.009Z,36.00
2018-12-20T07:57:24.837Z,39.37
2018-12-20T08:02:18.211Z,37.30
2018-12-20T08:07:12.013Z,36.80
2018-12-20T08:12:05.067Z,36.40
2018-12-20T08:16:59.440Z,33.93
2018-12-20T08:21:56.273Z,33.10
2018-12-20T08:26:49.293Z,34.33
2018-12-20T08:31:42.478Z,30.77
2018-12-20T08:36:35.536Z,33.30
2018-12-20T08:41:29.318Z,31.27
2018-12-20T08:46:22.284Z,28.83
2018-12-20T08:51:15.356Z,29.37
2018-12-20T08:56:08.943Z,27.27
2018-12-20T09:01:02.422Z,31.10
2018-12-20T09:05:55.286Z,29.87
2018-12-20T09:10:50.461Z,28.47
2018-12-20T09:15:44.099Z,26.83
2018-12-20T09:20:37.094Z,30.37
2018-12-20T09:25:30.472Z,31.27
2018-12-20T09:30:30.421Z,63.07
2018-12-20T09:35:21.691Z,29.43
2018-12-20T09:40:14.662Z,34.13
2018-12-20T09:45:07.731Z,29.37
2018-12-20T09:50:00.804Z,35.97
2018-12-20T09:54:54.443Z,34.87
2018-12-20T09:59:47.557Z,36.07
2018-12-20T10:04:42.537Z,32.07
2018-12-20T10:09:35.723Z,32.97
2018-12-20T10:14:29.124Z,36.07
2018-12-20T10:19:22.300Z,33.07
2018-12-20T10:24:15.606Z,30.70
2018-12-20T10:29:08.439Z,33.63
2018-12-20T10:34:02.532Z,34.10
2018-12-20T10:38:55.750Z,36.63
2018-12-20T10:43:49.690Z,36.77
2018-12-20T10:48:44.098Z,32.90
2018-12-20T10:53:36.977Z,35.30
2018-12-20T10:58:30.012Z,33.03
2018-12-20T11:03:28.854Z,31.97
2018-12-20T11:08:24.050Z,33.70
2018-12-20T11:13:23.112Z,31.03
2018-12-20T11:18:18.103Z,29.93
2018-12-20T11:23:15.208Z,30.80
2018-12-20T11:28:08.425Z,30.50
2018-12-20T11:33:01.394Z,31.10
2018-12-20T11:37:55.794Z,30.07
2018-12-20T11:42:48.659Z,28.50
2018-12-20T11:47:46.074Z,29.77
2018-12-20T11:52:42.281Z,27.97
2018-12-20T11:57:33.826Z,30.73
2018-12-20T12:02:26.820Z,28.47
2018-12-20T12:07:20.023Z,30.07
2018-12-20T12:12:13.080Z,31.57
2018-12-20T12:17:07.195Z,28.60
2018-12-20T12:22:00.186Z,32.57
2018-12-20T12:26:53.261Z,31.30
2018-12-20T12:31:46.327Z,31.07
2018-12-20T12:36:39.237Z,31.00
2018-12-20T12:41:32.672Z,32.27
2018-12-20T12:46:25.541Z,32.93
2018-12-20T12:51:19.616Z,31.53
2018-12-20T12:56:13.216Z,32.77
2018-12-20T13:01:06.079Z,32.93
2018-12-20T13:05:58.997Z,30.03
2018-12-20T13:10:52.985Z,31.97
2018-12-20T13:15:45.809Z,31.93
2018-12-20T13:20:38.670Z,35.23
2018-12-20T13:25:32.251Z,32.47
2018-12-20T13:30:26.143Z,33.33
2018-12-20T13:35:19.007Z,30.53
2018-12-20T13:40:11.974Z,34.90
2018-12-20T13:45:06.012Z,36.90
2018-12-20T13:49:58.936Z,35.13
2018-12-20T13:54:59.378Z,34.77
2018-12-20T13:59:52.240Z,34.10
2018-12-20T14:04:47.919Z,36.27
2018-12-20T14:09:40.946Z,34.53
2018-12-20T14:14:34.347Z,34.43
2018-12-20T14:19:27.441Z,33.23
2018-12-20T14:24:21.202Z,32.77
2018-12-20T14:36:24.244Z,38.20
2018-12-20T14:41:17.198Z,35.20
2018-12-20T14:46:11.963Z,34.97
2018-12-20T14:51:06.131Z,33.43
2018-12-20T14:56:00.107Z,33.67
2018-12-20T15:00:55.948Z,35.17
2018-12-20T15:05:49.158Z,35.83
2018-12-20T15:10:42.377Z,35.00
2018-12-20T15:15:35.832Z,36.57
2018-12-20T15:20:28.839Z,35.77
2018-12-20T15:25:23.719Z,32.63
2018-12-20T15:30:16.646Z,34.90
2018-12-20T15:35:09.573Z,34.17
2018-12-20T15:40:02.558Z,35.30
2018-12-20T15:44:55.526Z,35.93
2018-12-20T15:49:48.779Z,33.17
2018-12-20T15:54:41.855Z,33.07
2018-12-20T15:59:36.257Z,33.43
2018-12-20T16:04:31.201Z,37.43
2018-12-20T16:09:25.692Z,37.03
2018-12-20T16:14:19.504Z,35.83
2018-12-20T16:19:12.427Z,39.93
2018-12-20T16:24:06.626Z,38.27
2018-12-20T16:29:01.097Z,32.63
2018-12-20T16:33:54.001Z,32.07
2018-12-20T16:38:48.602Z,35.60
2018-12-20T16:43:43.222Z,36.07
2018-12-20T16:48:36.277Z,32.47
2018-12-20T16:53:30.203Z,35.40
2018-12-20T16:58:23.289Z,37.03
2018-12-20T17:03:24.193Z,35.37
2018-12-20T17:08:17.162Z,36.40
2018-12-20T17:13:12.513Z,35.53
2018-12-20T17:18:08.428Z,39.53
2018-12-20T17:23:01.971Z,37.37
2018-12-20T17:27:57.742Z,36.83
2018-12-20T17:32:52.252Z,38.30
2018-12-20T17:37:45.209Z,37.97
2018-12-20T17:42:38.959Z,37.73
2018-12-20T17:47:37.232Z,39.70
2018-12-20T17:52:30.975Z,39.27
2018-12-20T17:57:26.452Z,42.00
2018-12-20T18:02:19.578Z,38.83
2018-12-20T18:07:12.860Z,37.20
2018-12-20T18:12:07.379Z,41.33
2018-12-20T18:17:02.914Z,41.03
2018-12-20T18:21:56.570Z,44.50
2018-12-20T18:26:49.540Z,37.30
2018-12-20T18:31:43.300Z,42.63
2018-12-20T18:36:40.561Z,39.13
2018-12-20T18:41:33.561Z,42.77
2018-12-20T18:46:26.422Z,40.90
2018-12-20T18:51:19.392Z,41.20
2018-12-20T18:56:12.264Z,42.93
2018-12-20T19:01:05.244Z,35.87
2018-12-20T19:05:58.295Z,38.47
2018-12-20T19:10:51.916Z,56.87
2018-12-20T19:15:46.689Z,50.63
2018-12-20T19:20:40.285Z,37.17
2018-12-20T19:25:34.104Z,40.80
2018-12-20T19:30:27.729Z,41.93
2018-12-20T19:35:21.840Z,45.33
2018-12-20T19:40:15.894Z,38.33
2018-12-20T19:45:08.808Z,60.27
2018-12-20T19:50:05.085Z,66.20
2018-12-20T19:54:56.844Z,46.53
2018-12-20T19:59:50.657Z,41.70
2018-12-20T20:04:43.629Z,35.00
2018-12-20T20:09:36.607Z,31.07
2018-12-20T20:14:29.891Z,28.93
2018-12-20T20:19:24.324Z,31.13
2018-12-20T20:24:17.357Z,30.57
2018-12-20T20:29:10.257Z,28.17
2018-12-20T20:34:03.299Z,23.20
2018-12-20T20:39:01.990Z,24.23
2018-12-20T20:43:51.708Z,20.90
2018-12-20T20:48:44.657Z,18.63
2018-12-20T20:53:38.034Z,17.97
2018-12-20T20:58:31.206Z,18.80
2018-12-20T21:03:24.175Z,16.93
2018-12-20T21:08:17.140Z,19.10
2018-12-20T21:13:10.007Z,17.10
2018-12-20T21:18:04.184Z,16.00
2018-12-20T21:23:01.779Z,13.90
2018-12-20T21:27:54.685Z,13.03
2018-12-20T21:32:48.375Z,20.60
2018-12-20T21:37:41.404Z,10.83
2018-12-20T21:42:34.675Z,12.00
2018-12-20T21:47:29.795Z,20.17
2018-12-20T21:52:22.867Z,9.97
2018-12-20T21:57:17.471Z,8.47
2018-12-20T22:02:11.572Z,7.97
2018-12-20T22:07:05.924Z,7.63
2018-12-20T22:12:03.671Z,6.63
2018-12-20T22:16:56.874Z,8.00
2018-12-20T22:21:51.156Z,8.47
2018-12-20T22:26:44.247Z,8.90
2018-12-20T22:31:38.202Z,10.37
2018-12-20T22:36:31.050Z,10.93
2018-12-20T22:41:24.944Z,6.90
2018-12-20T22:46:18.012Z,7.97
2018-12-20T22:51:11.733Z,5.47
2018-12-20T22:56:04.868Z,10.63
2018-12-20T23:01:00.915Z,6.23
2018-12-20T23:05:53.917Z,2.90
2018-12-20T23:10:46.981Z,2.80
2018-12-20T23:15:39.807Z,3.30
2018-12-20T23:20:32.876Z,2.73
2018-12-20T23:25:25.844Z,4.30
2018-12-20T23:30:18.711Z,2.40
2018-12-20T23:35:11.611Z,1.77
2018-12-20T23:40:08.436Z,2.23
2018-12-20T23:45:04.276Z,1.77
2018-12-20T23:49:57.433Z,3.53
2018-12-20T23:54:51.134Z,1.70
2018-12-20T23:59:44.919Z,1.93
